sensor_id;sensor_type;location;lat;lon;timestamp;pressure;altitude;pressure_sealevel;temperature;humidity
10006;BME280;5042;42.626;23.382;2024-01-07T00:00:16;151169.78;;;8.24;100.00
10006;BME280;5042;42.626;23.382;2024-01-07T00:02:43;151161.97;;;8.21;100.00
10006;BME280;5042;42.626;23.382;2024-01-07T00:05:10;151161.97;;;8.21;100.00
10006;BME280;5042;42.626;23.382;2024-01-07T00:07:37;151167.16;;;8.23;100.00
10006;BME280;5042;42.626;23.382;2024-01-07T00:10:06;151058.44;;;7.80;100.00
10006;BME280;5042;42.626;23.382;2024-01-07T00:12:34;151215.13;;;8.42;100.00
10006;BME280;5042;42.626;23.382;2024-01-07T00:15:01;151238.44;;;8.51;100.00
10006;BME280;5042;42.626;23.382;2024-01-07T00:17:28;151255.28;;;8.58;100.00
10006;BME280;5042;42.626;23.382;2024-01-07T00:19:55;151235.84;;;8.50;100.00
10006;BME280;5042;42.626;23.382;2024-01-07T00:22:22;151250.09;;;8.56;100.00
10006;BME280;5042;42.626;23.382;2024-01-07T00:24:49;151282.47;;;8.68;100.00
10006;BME280;5042;42.626;23.382;2024-01-07T00:27:17;151225.47;;;8.46;100.00
10006;BME280;5042;42.626;23.382;2024-01-07T00:29:44;151206.03;;;8.38;100.00
10006;BME280;5042;42.626;23.382;2024-01-07T00:32:11;151156.84;;;8.19;100.00
10006;BME280;5042;42.626;23.382;2024-01-07T00:34:37;151182.72;;;8.29;100.00
10006;BME280;5042;42.626;23.382;2024-01-07T00:37:04;151177.53;;;8.27;100.00
10006;BME280;5042;42.626;23.382;2024-01-07T00:39:31;151160.69;;;8.20;100.00
10006;BME280;5042;42.626;23.382;2024-01-07T00:41:58;151123.16;;;8.05;100.00
10006;BME280;5042;42.626;23.382;2024-01-07T00:44:27;151128.34;;;8.07;100.00
10006;BME280;5042;42.626;23.382;2024-01-07T00:46:54;151119.25;;;8.04;100.00
10006;BME280;5042;42.626;23.382;2024-01-07T00:49:20;151142.56;;;8.13;100.00
10006;BME280;5042;42.626;23.382;2024-01-07T00:51:47;151146.47;;;8.15;100.00
10006;BME280;5042;42.626;23.382;2024-01-07T00:54:14;151154.22;;;8.18;100.00
10006;BME280;5042;42.626;23.382;2024-01-07T00:56:41;151150.38;;;8.16;100.00
10006;BME280;5042;42.626;23.382;2024-01-07T00:59:08;151182.72;;;8.29;100.00
10006;BME280;5042;42.626;23.382;2024-01-07T01:01:36;151199.56;;;8.36;100.00
10006;BME280;5042;42.626;23.382;2024-01-07T01:04:03;151215.13;;;8.42;100.00
10006;BME280;5042;42.626;23.382;2024-01-07T01:06:30;151199.56;;;8.36;100.00
10006;BME280;5042;42.626;23.382;2024-01-07T01:08:57;151221.59;;;8.44;100.00
10006;BME280;5042;42.626;23.382;2024-01-07T01:11:24;151217.72;;;8.43;100.00
10006;BME280;5042;42.626;23.382;2024-01-07T01:13:51;151212.53;;;8.41;100.00
10006;BME280;5042;42.626;23.382;2024-01-07T01:16:18;151243.59;;;8.53;100.00
10006;BME280;5042;42.626;23.382;2024-01-07T01:18:46;151247.50;;;8.55;100.00
10006;BME280;5042;42.626;23.382;2024-01-07T01:21:13;151275.97;;;8.66;100.00
10006;BME280;5042;42.626;23.382;2024-01-07T01:23:40;151264.34;;;8.61;100.00
10006;BME280;5042;42.626;23.382;2024-01-07T01:26:07;151285.06;;;8.69;100.00
10006;BME280;5042;42.626;23.382;2024-01-07T01:28:34;151261.75;;;8.60;100.00
10006;BME280;5042;42.626;23.382;2024-01-07T01:31:01;151235.84;;;8.50;100.00
10006;BME280;5042;42.626;23.382;2024-01-07T01:33:28;151226.75;;;8.46;100.00
10006;BME280;5042;42.626;23.382;2024-01-07T01:35:56;151278.59;;;8.67;100.00
10006;BME280;5042;42.626;23.382;2024-01-07T01:38:23;151310.94;;;8.80;100.00
10006;BME280;5042;42.626;23.382;2024-01-07T01:40:53;151320.03;;;8.83;100.00
10006;BME280;5042;42.626;23.382;2024-01-07T01:43:23;151307.09;;;8.78;100.00
10006;BME280;5042;42.626;23.382;2024-01-07T01:45:50;151314.84;;;8.81;100.00
10006;BME280;5042;42.626;23.382;2024-01-07T01:48:17;151275.97;;;8.66;100.00
10006;BME280;5042;42.626;23.382;2024-01-07T01:50:45;151275.97;;;8.66;100.00
10006;BME280;5042;42.626;23.382;2024-01-07T01:53:15;151290.25;;;8.72;100.00
10006;BME280;5042;42.626;23.382;2024-01-07T01:55:42;151272.13;;;8.64;100.00
10006;BME280;5042;42.626;23.382;2024-01-07T01:58:10;151279.88;;;8.67;100.00
10006;BME280;5042;42.626;23.382;2024-01-07T02:00:37;151310.94;;;8.80;100.00
10006;BME280;5042;42.626;23.382;2024-01-07T02:03:04;151327.78;;;8.86;100.00
10006;BME280;5042;42.626;23.382;2024-01-07T02:05:31;151357.56;;;8.98;100.00
10006;BME280;5042;42.626;23.382;2024-01-07T02:07:59;151374.44;;;9.05;100.00
10006;BME280;5042;42.626;23.382;2024-01-07T02:10:27;151397.75;;;9.14;100.00
10006;BME280;5042;42.626;23.382;2024-01-07T02:12:59;151399.03;;;9.15;100.00
10006;BME280;5042;42.626;23.382;2024-01-07T02:15:26;151391.28;;;9.11;100.00
10006;BME280;5042;42.626;23.382;2024-01-07T02:17:53;151397.75;;;9.14;100.00
10006;BME280;5042;42.626;23.382;2024-01-07T02:20:20;151458.63;;;9.38;100.00
10006;BME280;5042;42.626;23.382;2024-01-07T02:22:47;151479.34;;;9.46;100.00
10006;BME280;5042;42.626;23.382;2024-01-07T02:25:15;151491.00;;;9.51;100.00
10006;BME280;5042;42.626;23.382;2024-01-07T02:27:42;151463.84;;;9.40;100.00
10006;BME280;5042;42.626;23.382;2024-01-07T02:30:10;151466.41;;;9.41;100.00
10006;BME280;5042;42.626;23.382;2024-01-07T02:32:37;151470.31;;;9.43;100.00
10006;BME280;5042;42.626;23.382;2024-01-07T02:35:04;151462.53;;;9.40;100.00
10006;BME280;5042;42.626;23.382;2024-01-07T02:37:31;151360.16;;;8.99;100.00
10006;BME280;5042;42.626;23.382;2024-01-07T02:39:58;151511.78;;;9.59;100.00
10006;BME280;5042;42.626;23.382;2024-01-07T02:42:27;151542.88;;;9.71;100.00
10006;BME280;5042;42.626;23.382;2024-01-07T02:44:53;151564.91;;;9.80;100.00
10006;BME280;5042;42.626;23.382;2024-01-07T02:47:20;151579.16;;;9.86;100.00
10006;BME280;5042;42.626;23.382;2024-01-07T02:49:47;151586.91;;;9.89;100.00
10006;BME280;5042;42.626;23.382;2024-01-07T02:52:14;151558.44;;;9.77;100.00
10006;BME280;5042;42.626;23.382;2024-01-07T02:54:41;151546.78;;;9.73;100.00
10006;BME280;5042;42.626;23.382;2024-01-07T02:57:08;151570.06;;;9.82;100.00
10006;BME280;5042;42.626;23.382;2024-01-07T02:59:36;151589.53;;;9.90;100.00
10006;BME280;5042;42.626;23.382;2024-01-07T03:02:03;151608.97;;;9.97;100.00
10006;BME280;5042;42.626;23.382;2024-01-07T03:04:30;151610.25;;;9.98;100.00
10006;BME280;5042;42.626;23.382;2024-01-07T03:06:57;151614.16;;;10.00;100.00
10006;BME280;5042;42.626;23.382;2024-01-07T03:09:24;151584.34;;;9.88;100.00
10006;BME280;5042;42.626;23.382;2024-01-07T03:11:51;151559.72;;;9.78;100.00
10006;BME280;5042;42.626;23.382;2024-01-07T03:14:19;151536.41;;;9.69;100.00
10006;BME280;5042;42.626;23.382;2024-01-07T03:16:48;151551.91;;;9.75;100.00
10006;BME280;5042;42.626;23.382;2024-01-07T03:19:15;151522.09;;;9.63;100.00
10006;BME280;5042;42.626;23.382;2024-01-07T03:21:42;151518.25;;;9.62;100.00
10006;BME280;5042;42.626;23.382;2024-01-07T03:24:10;151511.78;;;9.59;100.00
10006;BME280;5042;42.626;23.382;2024-01-07T03:26:37;151528.63;;;9.66;100.00
10006;BME280;5042;42.626;23.382;2024-01-07T03:29:04;151553.25;;;9.75;100.00
10006;BME280;5042;42.626;23.382;2024-01-07T03:31:31;151538.97;;;9.70;100.00
10006;BME280;5042;42.626;23.382;2024-01-07T03:33:59;151492.31;;;9.51;100.00
10006;BME280;5042;42.626;23.382;2024-01-07T03:36:26;151541.59;;;9.71;100.00
10006;BME280;5042;42.626;23.382;2024-01-07T03:38:53;151527.31;;;9.65;100.00
10006;BME280;5042;42.626;23.382;2024-01-07T03:41:20;151503.97;;;9.56;100.00
10006;BME280;5042;42.626;23.382;2024-01-07T03:43:48;151378.34;;;9.06;100.00
10006;BME280;5042;42.626;23.382;2024-01-07T03:46:15;151461.22;;;9.39;100.00
10006;BME280;5042;42.626;23.382;2024-01-07T03:48:43;151453.44;;;9.36;100.00
10006;BME280;5042;42.626;23.382;2024-01-07T03:51:12;151470.31;;;9.43;100.00
10006;BME280;5042;42.626;23.382;2024-01-07T03:53:39;151470.31;;;9.43;100.00
10006;BME280;5042;42.626;23.382;2024-01-07T03:56:06;151421.09;;;9.23;100.00
10006;BME280;5042;42.626;23.382;2024-01-07T03:58:33;151408.09;;;9.18;100.00
10006;BME280;5042;42.626;23.382;2024-01-07T04:01:00;151413.28;;;9.20;100.00
10006;BME280;5042;42.626;23.382;2024-01-07T04:03:27;151406.78;;;9.18;100.00
10006;BME280;5042;42.626;23.382;2024-01-07T04:05:54;151402.94;;;9.16;100.00
10006;BME280;5042;42.626;23.382;2024-01-07T04:08:22;151436.59;;;9.29;100.00
10006;BME280;5042;42.626;23.382;2024-01-07T04:10:49;151475.50;;;9.45;100.00
10006;BME280;5042;42.626;23.382;2024-01-07T04:13:16;151457.34;;;9.38;100.00
10006;BME280;5042;42.626;23.382;2024-01-07T04:15:43;151467.69;;;9.42;100.00
10006;BME280;5042;42.626;23.382;2024-01-07T04:18:10;151478.06;;;9.46;100.00
10006;BME280;5042;42.626;23.382;2024-01-07T04:20:37;151472.88;;;9.44;100.00
10006;BME280;5042;42.626;23.382;2024-01-07T04:23:04;151440.50;;;9.31;100.00
10006;BME280;5042;42.626;23.382;2024-01-07T04:25:32;151405.50;;;9.17;100.00
10006;BME280;5042;42.626;23.382;2024-01-07T04:28:00;151402.94;;;9.16;100.00
10006;BME280;5042;42.626;23.382;2024-01-07T04:30:27;151361.47;;;9.00;100.00
10006;BME280;5042;42.626;23.382;2024-01-07T04:32:53;151362.78;;;9.00;100.00
10006;BME280;5042;42.626;23.382;2024-01-07T04:35:20;151264.34;;;8.61;100.00
10006;BME280;5042;42.626;23.382;2024-01-07T04:37:47;151345.91;;;8.94;100.00
10006;BME280;5042;42.626;23.382;2024-01-07T04:40:14;151343.34;;;8.93;100.00
10006;BME280;5042;42.626;23.382;2024-01-07T04:42:42;151327.78;;;8.86;100.00
10006;BME280;5042;42.626;23.382;2024-01-07T04:45:09;151286.34;;;8.70;100.00
10006;BME280;5042;42.626;23.382;2024-01-07T04:47:36;151286.34;;;8.70;100.00
10006;BME280;5042;42.626;23.382;2024-01-07T04:50:04;151301.91;;;8.76;100.00
10006;BME280;5042;42.626;23.382;2024-01-07T04:52:31;151250.09;;;8.56;100.00
10006;BME280;5042;42.626;23.382;2024-01-07T04:54:58;151252.69;;;8.57;100.00
10006;BME280;5042;42.626;23.382;2024-01-07T04:57:25;151253.97;;;8.57;100.00
10006;BME280;5042;42.626;23.382;2024-01-07T04:59:53;150901.88;;;7.18;100.00
10006;BME280;5042;42.626;23.382;2024-01-07T05:02:20;151233.25;;;8.49;100.00
10006;BME280;5042;42.626;23.382;2024-01-07T05:04:47;151244.91;;;8.54;100.00
10006;BME280;5042;42.626;23.382;2024-01-07T05:07:14;151244.91;;;8.54;100.00
10006;BME280;5042;42.626;23.382;2024-01-07T05:09:41;151224.19;;;8.45;100.00
10006;BME280;5042;42.626;23.382;2024-01-07T05:12:08;151239.72;;;8.52;100.00
10006;BME280;5042;42.626;23.382;2024-01-07T05:14:36;151273.41;;;8.65;100.00
10006;BME280;5042;42.626;23.382;2024-01-07T05:17:04;151247.50;;;8.55;100.00
10006;BME280;5042;42.626;23.382;2024-01-07T05:19:31;151239.72;;;8.52;100.00
10006;BME280;5042;42.626;23.382;2024-01-07T05:21:59;151211.25;;;8.40;100.00
10006;BME280;5042;42.626;23.382;2024-01-07T05:24:26;151200.84;;;8.36;100.00
10006;BME280;5042;42.626;23.382;2024-01-07T05:26:53;151208.59;;;8.39;100.00
10006;BME280;5042;42.626;23.382;2024-01-07T05:29:20;151128.34;;;8.07;100.00
10006;BME280;5042;42.626;23.382;2024-01-07T05:31:47;151151.66;;;8.17;100.00
10006;BME280;5042;42.626;23.382;2024-01-07T05:34:16;151115.41;;;8.02;100.00
10006;BME280;5042;42.626;23.382;2024-01-07T05:36:42;151102.47;;;7.97;100.00
10006;BME280;5042;42.626;23.382;2024-01-07T05:39:09;151106.31;;;7.99;100.00
10006;BME280;5042;42.626;23.382;2024-01-07T05:41:37;151085.63;;;7.91;100.00
10006;BME280;5042;42.626;23.382;2024-01-07T05:44:06;151083.03;;;7.90;100.00
10006;BME280;5042;42.626;23.382;2024-01-07T05:46:33;151057.16;;;7.79;100.00
10006;BME280;5042;42.626;23.382;2024-01-07T05:49:00;151054.59;;;7.78;100.00
10006;BME280;5042;42.626;23.382;2024-01-07T05:51:29;151042.94;;;7.74;100.00
10006;BME280;5042;42.626;23.382;2024-01-07T05:53:55;150996.34;;;7.55;100.00
10006;BME280;5042;42.626;23.382;2024-01-07T05:56:22;150983.41;;;7.50;100.00
10006;BME280;5042;42.626;23.382;2024-01-07T05:58:49;150979.50;;;7.49;100.00
10006;BME280;5042;42.626;23.382;2024-01-07T06:01:18;150942.00;;;7.34;100.00
10006;BME280;5042;42.626;23.382;2024-01-07T06:03:46;150956.22;;;7.39;100.00
10006;BME280;5042;42.626;23.382;2024-01-07T06:06:13;150872.13;;;7.06;100.00
10006;BME280;5042;42.626;23.382;2024-01-07T06:08:41;150961.41;;;7.41;100.00
10006;BME280;5042;42.626;23.382;2024-01-07T06:11:08;150982.09;;;7.50;100.00
10006;BME280;5042;42.626;23.382;2024-01-07T06:13:36;150947.19;;;7.36;100.00
10006;BME280;5042;42.626;23.382;2024-01-07T06:16:03;150943.28;;;7.34;100.00
10006;BME280;5042;42.626;23.382;2024-01-07T06:18:30;150958.84;;;7.40;100.00
10006;BME280;5042;42.626;23.382;2024-01-07T06:20:57;150991.16;;;7.53;100.00
10006;BME280;5042;42.626;23.382;2024-01-07T06:23:24;150995.06;;;7.55;100.00
10006;BME280;5042;42.626;23.382;2024-01-07T06:25:52;151017.03;;;7.63;100.00
10006;BME280;5042;42.626;23.382;2024-01-07T06:28:19;151011.84;;;7.61;100.00
10006;BME280;5042;42.626;23.382;2024-01-07T06:30:46;150975.63;;;7.47;100.00
10006;BME280;5042;42.626;23.382;2024-01-07T06:33:13;151022.19;;;7.65;100.00
10006;BME280;5042;42.626;23.382;2024-01-07T06:35:40;151039.03;;;7.72;100.00
10006;BME280;5042;42.626;23.382;2024-01-07T06:38:07;151068.81;;;7.84;100.00
10006;BME280;5042;42.626;23.382;2024-01-07T06:40:34;151080.47;;;7.89;100.00
10006;BME280;5042;42.626;23.382;2024-01-07T06:43:02;151068.81;;;7.84;100.00
10006;BME280;5042;42.626;23.382;2024-01-07T06:45:29;151102.47;;;7.97;100.00
10006;BME280;5042;42.626;23.382;2024-01-07T06:47:56;151136.09;;;8.11;100.00
10006;BME280;5042;42.626;23.382;2024-01-07T06:50:23;151137.38;;;8.11;100.00
10006;BME280;5042;42.626;23.382;2024-01-07T06:52:50;151141.28;;;8.13;100.00
10006;BME280;5042;42.626;23.382;2024-01-07T06:55:17;151123.16;;;8.05;100.00
10006;BME280;5042;42.626;23.382;2024-01-07T06:57:44;151147.75;;;8.15;100.00
10006;BME280;5042;42.626;23.382;2024-01-07T07:00:13;151169.78;;;8.24;100.00
10006;BME280;5042;42.626;23.382;2024-01-07T07:02:40;151165.88;;;8.22;100.00
10006;BME280;5042;42.626;23.382;2024-01-07T07:05:07;151165.88;;;8.22;100.00
10006;BME280;5042;42.626;23.382;2024-01-07T07:07:35;151164.59;;;8.22;100.00
10006;BME280;5042;42.626;23.382;2024-01-07T07:10:02;151190.47;;;8.32;100.00
10006;BME280;5042;42.626;23.382;2024-01-07T07:12:29;151204.75;;;8.38;100.00
10006;BME280;5042;42.626;23.382;2024-01-07T07:14:56;151237.13;;;8.51;100.00
10006;BME280;5042;42.626;23.382;2024-01-07T07:17:24;151257.84;;;8.59;100.00
10006;BME280;5042;42.626;23.382;2024-01-07T07:19:51;151279.88;;;8.67;100.00
10006;BME280;5042;42.626;23.382;2024-01-07T07:22:18;151301.91;;;8.76;100.00
10006;BME280;5042;42.626;23.382;2024-01-07T07:24:45;151313.56;;;8.81;100.00
10006;BME280;5042;42.626;23.382;2024-01-07T07:27:12;151313.56;;;8.81;100.00
10006;BME280;5042;42.626;23.382;2024-01-07T07:29:38;151339.44;;;8.91;100.00
10006;BME280;5042;42.626;23.382;2024-01-07T07:32:06;151360.16;;;8.99;100.00
10006;BME280;5042;42.626;23.382;2024-01-07T07:34:35;151395.13;;;9.13;100.00
10006;BME280;5042;42.626;23.382;2024-01-07T07:37:02;151410.69;;;9.19;100.00
10006;BME280;5042;42.626;23.382;2024-01-07T07:39:29;151417.16;;;9.22;100.00
10006;BME280;5042;42.626;23.382;2024-01-07T07:41:56;151414.59;;;9.21;100.00
10006;BME280;5042;42.626;23.382;2024-01-07T07:44:23;151400.31;;;9.15;100.00
10006;BME280;5042;42.626;23.382;2024-01-07T07:46:50;151431.41;;;9.27;100.00
10006;BME280;5042;42.626;23.382;2024-01-07T07:49:16;151441.78;;;9.31;100.00
10006;BME280;5042;42.626;23.382;2024-01-07T07:51:45;151418.47;;;9.22;100.00
10006;BME280;5042;42.626;23.382;2024-01-07T07:54:12;151378.34;;;9.06;100.00
10006;BME280;5042;42.626;23.382;2024-01-07T07:56:38;151299.28;;;8.75;100.00
10006;BME280;5042;42.626;23.382;2024-01-07T07:59:05;151395.13;;;9.13;100.00
10006;BME280;5042;42.626;23.382;2024-01-07T08:01:34;151408.09;;;9.18;100.00
10006;BME280;5042;42.626;23.382;2024-01-07T08:04:01;151402.94;;;9.16;100.00
10006;BME280;5042;42.626;23.382;2024-01-07T08:06:30;151408.09;;;9.18;100.00
10006;BME280;5042;42.626;23.382;2024-01-07T08:08:59;151370.53;;;9.03;100.00
10006;BME280;5042;42.626;23.382;2024-01-07T08:11:26;151352.41;;;8.96;100.00
10006;BME280;5042;42.626;23.382;2024-01-07T08:13:55;151353.69;;;8.97;100.00
10006;BME280;5042;42.626;23.382;2024-01-07T08:16:23;151389.94;;;9.11;100.00
10006;BME280;5042;42.626;23.382;2024-01-07T08:18:49;151439.22;;;9.30;100.00
10006;BME280;5042;42.626;23.382;2024-01-07T08:21:16;151485.81;;;9.49;100.00
10006;BME280;5042;42.626;23.382;2024-01-07T08:23:43;151484.53;;;9.48;100.00
10006;BME280;5042;42.626;23.382;2024-01-07T08:26:12;151514.34;;;9.60;100.00
10006;BME280;5042;42.626;23.382;2024-01-07T08:28:38;151533.78;;;9.68;100.00
10006;BME280;5042;42.626;23.382;2024-01-07T08:31:05;151550.63;;;9.74;100.00
10006;BME280;5042;42.626;23.382;2024-01-07T08:33:32;151566.22;;;9.81;100.00
10006;BME280;5042;42.626;23.382;2024-01-07T08:36:00;151555.81;;;9.76;100.00
10006;BME280;5042;42.626;23.382;2024-01-07T08:38:27;151594.75;;;9.92;100.00
10006;BME280;5042;42.626;23.382;2024-01-07T08:40:53;151608.97;;;9.97;100.00
10006;BME280;5042;42.626;23.382;2024-01-07T08:43:22;151654.31;;;10.15;100.00
10006;BME280;5042;42.626;23.382;2024-01-07T08:45:49;151656.94;;;10.16;100.00
10006;BME280;5042;42.626;23.382;2024-01-07T08:48:17;151641.38;;;10.10;100.00
10006;BME280;5042;42.626;23.382;2024-01-07T08:50:44;151631.03;;;10.06;100.00
10006;BME280;5042;42.626;23.382;2024-01-07T08:53:11;151646.56;;;10.12;100.00
10006;BME280;5042;42.626;23.382;2024-01-07T08:55:40;151680.28;;;10.26;100.00
10006;BME280;5042;42.626;23.382;2024-01-07T08:58:07;151676.38;;;10.24;100.00
10006;BME280;5042;42.626;23.382;2024-01-07T09:00:35;151680.28;;;10.26;100.00
10006;BME280;5042;42.626;23.382;2024-01-07T09:03:02;151692.00;;;10.30;100.00
10006;BME280;5042;42.626;23.382;2024-01-07T09:05:29;151743.84;;;10.51;100.00
10006;BME280;5042;42.626;23.382;2024-01-07T09:07:56;151784.06;;;10.67;100.00
10006;BME280;5042;42.626;23.382;2024-01-07T09:10:23;151743.84;;;10.51;100.00
10006;BME280;5042;42.626;23.382;2024-01-07T09:12:50;151714.03;;;10.39;100.00
10006;BME280;5042;42.626;23.382;2024-01-07T09:15:18;151727.03;;;10.44;100.00
10006;BME280;5042;42.626;23.382;2024-01-07T09:17:47;151749.03;;;10.53;100.00
10006;BME280;5042;42.626;23.382;2024-01-07T09:20:14;151745.19;;;10.51;100.00
10006;BME280;5042;42.626;23.382;2024-01-07T09:22:41;151758.16;;;10.56;100.00
10006;BME280;5042;42.626;23.382;2024-01-07T09:25:09;151773.69;;;10.63;100.00
10006;BME280;5042;42.626;23.382;2024-01-07T09:27:36;151755.53;;;10.55;100.00
10006;BME280;5042;42.626;23.382;2024-01-07T09:30:04;151711.44;;;10.38;100.00
10006;BME280;5042;42.626;23.382;2024-01-07T09:32:31;151660.84;;;10.18;100.00
10006;BME280;5042;42.626;23.382;2024-01-07T09:34:59;151608.97;;;9.97;100.00
10006;BME280;5042;42.626;23.382;2024-01-07T09:37:27;151750.34;;;10.53;100.00
10006;BME280;5042;42.626;23.382;2024-01-07T09:39:54;151763.34;;;10.58;100.00
10006;BME280;5042;42.626;23.382;2024-01-07T09:42:21;151755.53;;;10.55;100.00
10006;BME280;5042;42.626;23.382;2024-01-07T09:44:48;151768.50;;;10.60;100.00
10006;BME280;5042;42.626;23.382;2024-01-07T09:47:16;151767.19;;;10.60;100.00
10006;BME280;5042;42.626;23.382;2024-01-07T09:49:44;151800.94;;;10.73;100.00
10006;BME280;5042;42.626;23.382;2024-01-07T09:52:12;151764.63;;;10.59;100.00
10006;BME280;5042;42.626;23.382;2024-01-07T09:54:40;151767.19;;;10.60;100.00
10006;BME280;5042;42.626;23.382;2024-01-07T09:57:07;151806.13;;;10.75;100.00
10006;BME280;5042;42.626;23.382;2024-01-07T09:59:36;151800.94;;;10.73;100.00
10006;BME280;5042;42.626;23.382;2024-01-07T10:02:04;151828.16;;;10.84;100.00
10006;BME280;5042;42.626;23.382;2024-01-07T10:04:32;151803.50;;;10.74;100.00
10006;BME280;5042;42.626;23.382;2024-01-07T10:06:59;151755.53;;;10.55;100.00
10006;BME280;5042;42.626;23.382;2024-01-07T10:09:30;151756.88;;;10.56;100.00
10006;BME280;5042;42.626;23.382;2024-01-07T10:11:57;151772.41;;;10.62;100.00
10006;BME280;5042;42.626;23.382;2024-01-07T10:14:24;151732.19;;;10.46;100.00
10006;BME280;5042;42.626;23.382;2024-01-07T10:16:51;151755.53;;;10.55;100.00
10006;BME280;5042;42.626;23.382;2024-01-07T10:19:20;151752.94;;;10.54;100.00
10006;BME280;5042;42.626;23.382;2024-01-07T10:21:59;151745.19;;;10.51;100.00
10006;BME280;5042;42.626;23.382;2024-01-07T10:24:35;151756.88;;;10.56;100.00
10006;BME280;5042;42.626;23.382;2024-01-07T10:27:04;151767.19;;;10.60;100.00
10006;BME280;5042;42.626;23.382;2024-01-07T10:29:31;151695.88;;;10.32;100.00
10006;BME280;5042;42.626;23.382;2024-01-07T10:31:59;151794.47;;;10.71;100.00
10006;BME280;5042;42.626;23.382;2024-01-07T10:34:30;151815.19;;;10.79;100.00
10006;BME280;5042;42.626;23.382;2024-01-07T10:36:59;151791.84;;;10.70;100.00
10006;BME280;5042;42.626;23.382;2024-01-07T10:39:26;151768.50;;;10.60;100.00
10006;BME280;5042;42.626;23.382;2024-01-07T10:41:54;151762.00;;;10.58;100.00
10006;BME280;5042;42.626;23.382;2024-01-07T10:44:25;151802.22;;;10.74;100.00
10006;BME280;5042;42.626;23.382;2024-01-07T10:46:53;151810.00;;;10.77;100.00
10006;BME280;5042;42.626;23.382;2024-01-07T10:49:22;151810.00;;;10.77;100.00
10006;BME280;5042;42.626;23.382;2024-01-07T10:51:56;151871.00;;;11.01;100.00
10006;BME280;5042;42.626;23.382;2024-01-07T10:54:29;151724.41;;;10.43;100.00
10006;BME280;5042;42.626;23.382;2024-01-07T10:56:59;151811.34;;;10.77;100.00
10006;BME280;5042;42.626;23.382;2024-01-07T10:59:26;151837.25;;;10.88;100.00
10006;BME280;5042;42.626;23.382;2024-01-07T11:01:54;151848.94;;;10.92;100.00
10006;BME280;5042;42.626;23.382;2024-01-07T11:04:26;151852.78;;;10.94;100.00
10006;BME280;5042;42.626;23.382;2024-01-07T11:07:03;151825.59;;;10.83;100.00
10006;BME280;5042;42.626;23.382;2024-01-07T11:09:35;151810.00;;;10.77;100.00
10006;BME280;5042;42.626;23.382;2024-01-07T11:12:04;151817.81;;;10.80;100.00
10006;BME280;5042;42.626;23.382;2024-01-07T11:14:37;151843.75;;;10.90;100.00
10006;BME280;5042;42.626;23.382;2024-01-07T11:17:06;151846.31;;;10.91;100.00
10006;BME280;5042;42.626;23.382;2024-01-07T11:19:33;151789.28;;;10.69;100.00
10006;BME280;5042;42.626;23.382;2024-01-07T11:22:23;151835.97;;;10.87;100.00
10006;BME280;5042;42.626;23.382;2024-01-07T11:24:53;151874.88;;;11.02;100.00
10006;BME280;5042;42.626;23.382;2024-01-07T11:27:23;151895.66;;;11.11;100.00
10006;BME280;5042;42.626;23.382;2024-01-07T11:29:54;151882.63;;;11.06;100.00
10006;BME280;5042;42.626;23.382;2024-01-07T11:32:22;151890.44;;;11.09;100.00
10006;BME280;5042;42.626;23.382;2024-01-07T11:34:50;151886.53;;;11.07;100.00
10006;BME280;5042;42.626;23.382;2024-01-07T11:37:19;151859.34;;;10.96;100.00
10006;BME280;5042;42.626;23.382;2024-01-07T11:39:47;151852.78;;;10.94;100.00
10006;BME280;5042;42.626;23.382;2024-01-07T11:42:15;151880.06;;;11.04;100.00
10006;BME280;5042;42.626;23.382;2024-01-07T11:44:47;151856.72;;;10.95;100.00
10006;BME280;5042;42.626;23.382;2024-01-07T11:47:15;151856.72;;;10.95;100.00
10006;BME280;5042;42.626;23.382;2024-01-07T11:49:42;151871.00;;;11.01;100.00
10006;BME280;5042;42.626;23.382;2024-01-07T11:52:09;151887.84;;;11.08;100.00
10006;BME280;5042;42.626;23.382;2024-01-07T11:54:37;151915.09;;;11.18;100.00
10006;BME280;5042;42.626;23.382;2024-01-07T11:57:04;151913.81;;;11.18;100.00
10006;BME280;5042;42.626;23.382;2024-01-07T11:59:31;151942.31;;;11.29;100.00
10006;BME280;5042;42.626;23.382;2024-01-07T12:02:01;151885.25;;;11.07;100.00
10006;BME280;5042;42.626;23.382;2024-01-07T12:04:29;151912.47;;;11.17;100.00
10006;BME280;5042;42.626;23.382;2024-01-07T12:06:57;151917.69;;;11.19;100.00
10006;BME280;5042;42.626;23.382;2024-01-07T12:09:24;151911.19;;;11.17;100.00
10006;BME280;5042;42.626;23.382;2024-01-07T12:11:51;151961.84;;;11.37;100.00
10006;BME280;5042;42.626;23.382;2024-01-07T12:14:18;151976.09;;;11.42;100.00
10006;BME280;5042;42.626;23.382;2024-01-07T12:16:46;152011.13;;;11.56;100.00
10006;BME280;5042;42.626;23.382;2024-01-07T12:19:14;152022.81;;;11.61;100.00
10006;BME280;5042;42.626;23.382;2024-01-07T12:21:41;152052.66;;;11.73;100.00
10006;BME280;5042;42.626;23.382;2024-01-07T12:24:08;152069.56;;;11.79;100.00
10006;BME280;5042;42.626;23.382;2024-01-07T12:26:34;152081.19;;;11.84;100.00
10006;BME280;5042;42.626;23.382;2024-01-07T12:29:03;152112.44;;;11.96;100.00
10006;BME280;5042;42.626;23.382;2024-01-07T12:31:32;152117.63;;;11.98;100.00
10006;BME280;5042;42.626;23.382;2024-01-07T12:34:00;152095.56;;;11.90;100.00
10006;BME280;5042;42.626;23.382;2024-01-07T12:36:30;152089.06;;;11.87;100.00
10006;BME280;5042;42.626;23.382;2024-01-07T12:38:57;152096.84;;;11.90;100.00
10006;BME280;5042;42.626;23.382;2024-01-07T12:41:24;152111.09;;;11.96;100.00
10006;BME280;5042;42.626;23.382;2024-01-07T12:43:51;152048.75;;;11.71;100.00
10006;BME280;5042;42.626;23.382;2024-01-07T12:46:18;152118.94;;;11.99;100.00
10006;BME280;5042;42.626;23.382;2024-01-07T12:48:45;152098.13;;;11.91;100.00